sensor_id;sensor_type;location;lat;lon;timestamp;P1;durP1;ratioP1;P2;durP2;ratioP2
56073;SDS011;41950;55.840;37.442;2022-08-19T00:01:47;7.18;;;4.90;;
56073;SDS011;41950;55.840;37.442;2022-08-19T00:04:17;9.65;;;5.43;;
56073;SDS011;41950;55.840;37.442;2022-08-19T00:06:44;10.57;;;5.55;;
56073;SDS011;41950;55.840;37.442;2022-08-19T00:09:11;10.18;;;5.63;;
56073;SDS011;41950;55.840;37.442;2022-08-19T00:11:43;10.45;;;5.68;;
56073;SDS011;41950;55.840;37.442;2022-08-19T00:14:19;8.77;;;5.55;;
56073;SDS011;41950;55.840;37.442;2022-08-19T00:16:46;8.70;;;5.43;;
56073;SDS011;41950;55.840;37.442;2022-08-19T00:19:16;9.40;;;5.97;;
56073;SDS011;41950;55.840;37.442;2022-08-19T00:21:43;8.05;;;5.30;;
56073;SDS011;41950;55.840;37.442;2022-08-19T00:24:10;10.38;;;5.63;;
56073;SDS011;41950;55.840;37.442;2022-08-19T00:26:39;9.35;;;5.68;;
56073;SDS011;41950;55.840;37.442;2022-08-19T00:29:06;8.35;;;5.85;;
56073;SDS011;41950;55.840;37.442;2022-08-19T00:31:35;6.35;;;5.10;;
56073;SDS011;41950;55.840;37.442;2022-08-19T00:34:01;9.25;;;6.03;;
56073;SDS011;41950;55.840;37.442;2022-08-19T00:36:27;9.02;;;5.53;;
56073;SDS011;41950;55.840;37.442;2022-08-19T00:38:54;7.55;;;5.25;;
56073;SDS011;41950;55.840;37.442;2022-08-19T00:41:20;11.45;;;5.95;;
56073;SDS011;41950;55.840;37.442;2022-08-19T00:44:08;8.23;;;5.25;;
56073;SDS011;41950;55.840;37.442;2022-08-19T00:46:41;7.82;;;5.93;;
56073;SDS011;41950;55.840;37.442;2022-08-19T00:49:14;7.45;;;5.30;;
56073;SDS011;41950;55.840;37.442;2022-08-19T00:51:51;9.05;;;6.38;;
56073;SDS011;41950;55.840;37.442;2022-08-19T00:54:19;10.15;;;6.28;;
56073;SDS011;41950;55.840;37.442;2022-08-19T00:56:46;13.40;;;6.38;;
56073;SDS011;41950;55.840;37.442;2022-08-19T00:59:16;9.90;;;6.28;;
56073;SDS011;41950;55.840;37.442;2022-08-19T01:01:43;10.60;;;6.80;;
56073;SDS011;41950;55.840;37.442;2022-08-19T01:04:10;11.38;;;7.30;;
56073;SDS011;41950;55.840;37.442;2022-08-19T01:06:36;10.38;;;7.28;;
56073;SDS011;41950;55.840;37.442;2022-08-19T01:09:03;9.70;;;6.97;;
56073;SDS011;41950;55.840;37.442;2022-08-19T01:11:30;9.43;;;7.20;;
56073;SDS011;41950;55.840;37.442;2022-08-19T01:13:59;10.35;;;7.20;;
56073;SDS011;41950;55.840;37.442;2022-08-19T01:16:25;9.82;;;6.55;;
56073;SDS011;41950;55.840;37.442;2022-08-19T01:18:54;8.85;;;7.03;;
56073;SDS011;41950;55.840;37.442;2022-08-19T01:24:22;10.35;;;7.00;;
56073;SDS011;41950;55.840;37.442;2022-08-19T01:26:48;10.52;;;6.70;;
56073;SDS011;41950;55.840;37.442;2022-08-19T01:29:14;12.48;;;7.15;;
56073;SDS011;41950;55.840;37.442;2022-08-19T01:31:40;12.45;;;7.05;;
56073;SDS011;41950;55.840;37.442;2022-08-19T01:34:06;11.05;;;7.32;;
56073;SDS011;41950;55.840;37.442;2022-08-19T01:39:13;10.80;;;7.13;;
56073;SDS011;41950;55.840;37.442;2022-08-19T01:41:41;10.93;;;6.65;;
56073;SDS011;41950;55.840;37.442;2022-08-19T01:44:07;11.15;;;7.60;;
56073;SDS011;41950;55.840;37.442;2022-08-19T01:46:35;10.55;;;7.13;;
56073;SDS011;41950;55.840;37.442;2022-08-19T01:49:03;11.00;;;7.45;;
56073;SDS011;41950;55.840;37.442;2022-08-19T01:51:31;11.82;;;7.70;;
56073;SDS011;41950;55.840;37.442;2022-08-19T01:53:58;9.82;;;7.30;;
56073;SDS011;41950;55.840;37.442;2022-08-19T01:56:33;11.13;;;7.40;;
56073;SDS011;41950;55.840;37.442;2022-08-19T01:59:00;11.40;;;7.55;;
56073;SDS011;41950;55.840;37.442;2022-08-19T02:01:29;10.32;;;7.28;;
56073;SDS011;41950;55.840;37.442;2022-08-19T02:03:57;10.43;;;7.63;;
56073;SDS011;41950;55.840;37.442;2022-08-19T02:06:25;9.30;;;7.28;;
56073;SDS011;41950;55.840;37.442;2022-08-19T02:08:50;10.30;;;6.78;;
56073;SDS011;41950;55.840;37.442;2022-08-19T02:11:21;10.65;;;6.75;;
56073;SDS011;41950;55.840;37.442;2022-08-19T02:13:52;12.15;;;7.10;;
56073;SDS011;41950;55.840;37.442;2022-08-19T02:16:19;11.02;;;7.13;;
56073;SDS011;41950;55.840;37.442;2022-08-19T02:18:46;11.63;;;7.00;;
56073;SDS011;41950;55.840;37.442;2022-08-19T02:21:14;8.80;;;6.88;;
56073;SDS011;41950;55.840;37.442;2022-08-19T02:23:41;11.25;;;7.32;;
56073;SDS011;41950;55.840;37.442;2022-08-19T02:26:07;12.27;;;7.25;;
56073;SDS011;41950;55.840;37.442;2022-08-19T02:28:33;12.13;;;7.28;;
56073;SDS011;41950;55.840;37.442;2022-08-19T02:30:58;10.00;;;6.45;;
56073;SDS011;41950;55.840;37.442;2022-08-19T02:33:27;10.50;;;6.35;;
56073;SDS011;41950;55.840;37.442;2022-08-19T02:35:53;9.95;;;6.93;;
56073;SDS011;41950;55.840;37.442;2022-08-19T02:38:19;10.00;;;6.78;;
56073;SDS011;41950;55.840;37.442;2022-08-19T02:40:52;10.77;;;6.72;;
56073;SDS011;41950;55.840;37.442;2022-08-19T02:43:20;8.40;;;6.70;;
56073;SDS011;41950;55.840;37.442;2022-08-19T02:45:47;10.60;;;6.78;;
56073;SDS011;41950;55.840;37.442;2022-08-19T02:48:20;10.35;;;6.47;;
56073;SDS011;41950;55.840;37.442;2022-08-19T02:50:47;9.80;;;6.38;;
56073;SDS011;41950;55.840;37.442;2022-08-19T02:53:18;10.50;;;6.15;;
56073;SDS011;41950;55.840;37.442;2022-08-19T02:55:47;7.93;;;6.10;;
56073;SDS011;41950;55.840;37.442;2022-08-19T02:58:13;9.90;;;6.50;;
56073;SDS011;41950;55.840;37.442;2022-08-19T03:00:49;7.60;;;5.55;;
56073;SDS011;41950;55.840;37.442;2022-08-19T03:03:18;8.48;;;5.90;;
56073;SDS011;41950;55.840;37.442;2022-08-19T03:05:44;7.82;;;5.60;;
56073;SDS011;41950;55.840;37.442;2022-08-19T03:08:10;11.55;;;5.93;;
56073;SDS011;41950;55.840;37.442;2022-08-19T03:10:41;9.90;;;5.78;;
56073;SDS011;41950;55.840;37.442;2022-08-19T03:13:10;10.55;;;5.68;;
56073;SDS011;41950;55.840;37.442;2022-08-19T03:15:44;11.10;;;5.40;;
56073;SDS011;41950;55.840;37.442;2022-08-19T03:18:11;6.95;;;4.93;;
56073;SDS011;41950;55.840;37.442;2022-08-19T03:20:41;8.95;;;5.72;;
56073;SDS011;41950;55.840;37.442;2022-08-19T03:23:09;10.32;;;5.60;;
56073;SDS011;41950;55.840;37.442;2022-08-19T03:25:36;9.45;;;5.55;;
56073;SDS011;41950;55.840;37.442;2022-08-19T03:28:05;10.65;;;5.97;;
56073;SDS011;41950;55.840;37.442;2022-08-19T03:30:34;9.50;;;5.82;;
56073;SDS011;41950;55.840;37.442;2022-08-19T03:33:00;9.63;;;6.43;;
56073;SDS011;41950;55.840;37.442;2022-08-19T03:35:26;7.55;;;5.45;;
56073;SDS011;41950;55.840;37.442;2022-08-19T03:37:55;9.38;;;6.03;;
56073;SDS011;41950;55.840;37.442;2022-08-19T03:40:21;10.07;;;5.80;;
56073;SDS011;41950;55.840;37.442;2022-08-19T03:42:47;9.27;;;5.85;;
56073;SDS011;41950;55.840;37.442;2022-08-19T03:45:12;9.55;;;6.28;;
56073;SDS011;41950;55.840;37.442;2022-08-19T03:47:38;10.30;;;6.43;;
56073;SDS011;41950;55.840;37.442;2022-08-19T03:50:06;8.48;;;6.32;;
56073;SDS011;41950;55.840;37.442;2022-08-19T03:52:33;8.40;;;6.10;;
56073;SDS011;41950;55.840;37.442;2022-08-19T03:54:59;9.32;;;6.15;;
56073;SDS011;41950;55.840;37.442;2022-08-19T03:57:25;10.23;;;5.65;;
56073;SDS011;41950;55.840;37.442;2022-08-19T03:59:50;10.57;;;6.70;;
56073;SDS011;41950;55.840;37.442;2022-08-19T04:02:16;10.00;;;6.53;;
56073;SDS011;41950;55.840;37.442;2022-08-19T04:04:43;12.02;;;5.85;;
56073;SDS011;41950;55.840;37.442;2022-08-19T04:07:09;11.77;;;6.13;;
56073;SDS011;41950;55.840;37.442;2022-08-19T04:09:36;10.80;;;5.68;;
56073;SDS011;41950;55.840;37.442;2022-08-19T04:12:02;10.35;;;5.80;;
56073;SDS011;41950;55.840;37.442;2022-08-19T04:14:30;8.38;;;5.72;;
56073;SDS011;41950;55.840;37.442;2022-08-19T04:16:57;9.68;;;5.70;;
56073;SDS011;41950;55.840;37.442;2022-08-19T04:19:23;8.38;;;5.43;;
56073;SDS011;41950;55.840;37.442;2022-08-19T04:21:51;11.07;;;5.40;;
56073;SDS011;41950;55.840;37.442;2022-08-19T04:24:18;11.82;;;5.78;;
56073;SDS011;41950;55.840;37.442;2022-08-19T04:26:53;9.07;;;5.30;;
56073;SDS011;41950;55.840;37.442;2022-08-19T04:29:22;7.53;;;5.03;;
56073;SDS011;41950;55.840;37.442;2022-08-19T04:31:50;11.30;;;4.97;;
56073;SDS011;41950;55.840;37.442;2022-08-19T04:34:19;9.60;;;5.72;;
56073;SDS011;41950;55.840;37.442;2022-08-19T04:36:47;12.07;;;5.07;;
56073;SDS011;41950;55.840;37.442;2022-08-19T04:39:15;6.95;;;4.70;;
56073;SDS011;41950;55.840;37.442;2022-08-19T04:41:42;10.20;;;5.47;;
56073;SDS011;41950;55.840;37.442;2022-08-19T04:44:27;8.57;;;4.60;;
56073;SDS011;41950;55.840;37.442;2022-08-19T04:46:58;7.00;;;4.63;;
56073;SDS011;41950;55.840;37.442;2022-08-19T04:49:28;8.52;;;4.60;;
56073;SDS011;41950;55.840;37.442;2022-08-19T04:51:55;7.95;;;3.97;;
56073;SDS011;41950;55.840;37.442;2022-08-19T04:54:22;9.95;;;4.25;;
56073;SDS011;41950;55.840;37.442;2022-08-19T04:56:50;12.60;;;4.75;;
56073;SDS011;41950;55.840;37.442;2022-08-19T04:59:18;7.25;;;4.00;;
56073;SDS011;41950;55.840;37.442;2022-08-19T05:01:45;6.80;;;3.65;;
56073;SDS011;41950;55.840;37.442;2022-08-19T05:04:14;7.88;;;4.18;;
56073;SDS011;41950;55.840;37.442;2022-08-19T05:06:40;7.13;;;4.05;;
56073;SDS011;41950;55.840;37.442;2022-08-19T05:09:06;6.47;;;4.00;;
56073;SDS011;41950;55.840;37.442;2022-08-19T05:11:33;8.30;;;4.13;;
56073;SDS011;41950;55.840;37.442;2022-08-19T05:14:04;7.50;;;4.07;;
56073;SDS011;41950;55.840;37.442;2022-08-19T05:16:30;7.05;;;4.00;;
56073;SDS011;41950;55.840;37.442;2022-08-19T05:18:56;6.25;;;3.83;;
56073;SDS011;41950;55.840;37.442;2022-08-19T05:21:41;5.80;;;3.85;;
56073;SDS011;41950;55.840;37.442;2022-08-19T05:24:28;6.72;;;4.05;;
56073;SDS011;41950;55.840;37.442;2022-08-19T05:27:02;7.30;;;4.28;;
56073;SDS011;41950;55.840;37.442;2022-08-19T05:29:30;8.77;;;4.07;;
56073;SDS011;41950;55.840;37.442;2022-08-19T05:31:58;7.03;;;3.80;;
56073;SDS011;41950;55.840;37.442;2022-08-19T05:34:24;6.72;;;4.05;;
56073;SDS011;41950;55.840;37.442;2022-08-19T05:36:55;10.65;;;4.22;;
56073;SDS011;41950;55.840;37.442;2022-08-19T05:39:23;6.47;;;4.00;;
56073;SDS011;41950;55.840;37.442;2022-08-19T05:41:52;7.00;;;3.72;;
56073;SDS011;41950;55.840;37.442;2022-08-19T05:44:39;7.07;;;4.03;;
56073;SDS011;41950;55.840;37.442;2022-08-19T05:47:09;7.63;;;3.95;;
56073;SDS011;41950;55.840;37.442;2022-08-19T05:49:40;12.00;;;5.05;;
56073;SDS011;41950;55.840;37.442;2022-08-19T05:52:06;8.57;;;4.38;;
56073;SDS011;41950;55.840;37.442;2022-08-19T05:54:37;11.70;;;4.47;;
56073;SDS011;41950;55.840;37.442;2022-08-19T05:57:05;9.02;;;4.18;;
56073;SDS011;41950;55.840;37.442;2022-08-19T05:59:32;10.82;;;4.88;;
56073;SDS011;41950;55.840;37.442;2022-08-19T06:01:59;21.13;;;4.95;;
56073;SDS011;41950;55.840;37.442;2022-08-19T06:04:25;8.70;;;4.20;;
56073;SDS011;41950;55.840;37.442;2022-08-19T06:06:52;8.27;;;3.90;;
56073;SDS011;41950;55.840;37.442;2022-08-19T06:09:19;8.82;;;3.83;;
56073;SDS011;41950;55.840;37.442;2022-08-19T06:11:47;9.13;;;4.28;;
56073;SDS011;41950;55.840;37.442;2022-08-19T06:14:29;7.93;;;3.75;;
56073;SDS011;41950;55.840;37.442;2022-08-19T06:16:56;8.88;;;4.50;;
56073;SDS011;41950;55.840;37.442;2022-08-19T06:19:25;7.47;;;4.25;;
56073;SDS011;41950;55.840;37.442;2022-08-19T06:21:51;9.18;;;4.70;;
56073;SDS011;41950;55.840;37.442;2022-08-19T06:24:19;10.75;;;4.38;;
56073;SDS011;41950;55.840;37.442;2022-08-19T06:26:49;7.63;;;4.13;;
56073;SDS011;41950;55.840;37.442;2022-08-19T06:29:18;9.05;;;4.32;;
56073;SDS011;41950;55.840;37.442;2022-08-19T06:31:46;7.72;;;4.10;;
56073;SDS011;41950;55.840;37.442;2022-08-19T06:34:14;7.22;;;4.20;;
56073;SDS011;41950;55.840;37.442;2022-08-19T06:36:42;9.73;;;4.28;;
56073;SDS011;41950;55.840;37.442;2022-08-19T06:39:10;10.70;;;4.40;;
56073;SDS011;41950;55.840;37.442;2022-08-19T06:41:40;10.80;;;4.32;;
56073;SDS011;41950;55.840;37.442;2022-08-19T06:44:10;9.90;;;4.55;;
56073;SDS011;41950;55.840;37.442;2022-08-19T06:46:37;6.30;;;4.18;;
56073;SDS011;41950;55.840;37.442;2022-08-19T06:49:03;9.18;;;4.32;;
56073;SDS011;41950;55.840;37.442;2022-08-19T06:51:30;8.00;;;3.95;;
56073;SDS011;41950;55.840;37.442;2022-08-19T06:53:59;7.97;;;3.97;;
56073;SDS011;41950;55.840;37.442;2022-08-19T06:56:26;8.95;;;4.68;;
56073;SDS011;41950;55.840;37.442;2022-08-19T06:59:06;9.88;;;4.45;;
56073;SDS011;41950;55.840;37.442;2022-08-19T07:01:45;6.22;;;3.88;;
56073;SDS011;41950;55.840;37.442;2022-08-19T07:04:17;7.85;;;3.88;;
56073;SDS011;41950;55.840;37.442;2022-08-19T07:06:45;7.07;;;4.03;;
56073;SDS011;41950;55.840;37.442;2022-08-19T07:09:12;9.70;;;4.07;;
56073;SDS011;41950;55.840;37.442;2022-08-19T07:11:43;7.03;;;4.22;;
56073;SDS011;41950;55.840;37.442;2022-08-19T07:14:13;8.00;;;4.07;;
56073;SDS011;41950;55.840;37.442;2022-08-19T07:16:39;8.82;;;4.43;;
56073;SDS011;41950;55.840;37.442;2022-08-19T07:19:05;6.93;;;4.47;;
56073;SDS011;41950;55.840;37.442;2022-08-19T07:21:31;7.88;;;4.50;;
56073;SDS011;41950;55.840;37.442;2022-08-19T07:23:58;6.38;;;4.20;;
56073;SDS011;41950;55.840;37.442;2022-08-19T07:26:27;7.53;;;3.92;;
56073;SDS011;41950;55.840;37.442;2022-08-19T07:28:56;12.00;;;4.40;;
56073;SDS011;41950;55.840;37.442;2022-08-19T07:31:23;8.80;;;4.13;;
56073;SDS011;41950;55.840;37.442;2022-08-19T07:33:51;8.90;;;4.32;;
56073;SDS011;41950;55.840;37.442;2022-08-19T07:36:21;8.52;;;4.38;;
56073;SDS011;41950;55.840;37.442;2022-08-19T07:38:50;8.80;;;4.05;;
56073;SDS011;41950;55.840;37.442;2022-08-19T07:41:19;6.78;;;3.78;;
56073;SDS011;41950;55.840;37.442;2022-08-19T07:43:47;6.60;;;3.97;;
56073;SDS011;41950;55.840;37.442;2022-08-19T07:46:14;7.72;;;3.88;;
56073;SDS011;41950;55.840;37.442;2022-08-19T07:48:41;8.90;;;3.75;;
56073;SDS011;41950;55.840;37.442;2022-08-19T07:51:09;7.15;;;3.70;;
56073;SDS011;41950;55.840;37.442;2022-08-19T07:53:36;8.32;;;3.78;;
56073;SDS011;41950;55.840;37.442;2022-08-19T07:56:03;5.88;;;3.40;;
56073;SDS011;41950;55.840;37.442;2022-08-19T07:58:30;7.10;;;3.50;;
56073;SDS011;41950;55.840;37.442;2022-08-19T08:00:58;8.30;;;3.67;;
56073;SDS011;41950;55.840;37.442;2022-08-19T08:03:25;6.55;;;3.45;;
56073;SDS011;41950;55.840;37.442;2022-08-19T08:06:10;8.85;;;3.70;;
56073;SDS011;41950;55.840;37.442;2022-08-19T08:08:55;7.40;;;3.35;;
56073;SDS011;41950;55.840;37.442;2022-08-19T08:11:44;8.13;;;3.08;;
56073;SDS011;41950;55.840;37.442;2022-08-19T08:14:17;8.43;;;3.30;;
56073;SDS011;41950;55.840;37.442;2022-08-19T08:16:47;7.55;;;3.28;;
56073;SDS011;41950;55.840;37.442;2022-08-19T08:19:15;7.55;;;3.13;;
56073;SDS011;41950;55.840;37.442;2022-08-19T08:21:42;6.88;;;3.03;;
56073;SDS011;41950;55.840;37.442;2022-08-19T08:24:08;9.95;;;3.60;;
56073;SDS011;41950;55.840;37.442;2022-08-19T08:26:34;9.00;;;3.30;;
56073;SDS011;41950;55.840;37.442;2022-08-19T08:29:00;10.10;;;3.47;;
56073;SDS011;41950;55.840;37.442;2022-08-19T08:31:28;8.93;;;3.42;;
56073;SDS011;41950;55.840;37.442;2022-08-19T08:33:54;7.75;;;3.33;;
56073;SDS011;41950;55.840;37.442;2022-08-19T08:36:20;7.30;;;3.25;;
56073;SDS011;41950;55.840;37.442;2022-08-19T08:38:46;6.50;;;3.30;;
56073;SDS011;41950;55.840;37.442;2022-08-19T08:43:52;6.00;;;3.20;;
56073;SDS011;41950;55.840;37.442;2022-08-19T08:46:22;5.05;;;3.20;;
56073;SDS011;41950;55.840;37.442;2022-08-19T08:49:02;8.55;;;4.00;;
56073;SDS011;41950;55.840;37.442;2022-08-19T08:51:57;7.30;;;3.90;;
56073;SDS011;41950;55.840;37.442;2022-08-19T08:54:33;9.30;;;3.85;;
56073;SDS011;41950;55.840;37.442;2022-08-19T08:57:04;6.65;;;3.78;;
56073;SDS011;41950;55.840;37.442;2022-08-19T08:59:37;8.43;;;4.05;;
56073;SDS011;41950;55.840;37.442;2022-08-19T09:02:06;7.85;;;4.00;;
56073;SDS011;41950;55.840;37.442;2022-08-19T09:04:34;7.72;;;3.83;;
56073;SDS011;41950;55.840;37.442;2022-08-19T09:07:17;9.48;;;4.55;;
56073;SDS011;41950;55.840;37.442;2022-08-19T09:09:51;6.00;;;4.10;;
56073;SDS011;41950;55.840;37.442;2022-08-19T09:13:05;6.78;;;4.05;;
56073;SDS011;41950;55.840;37.442;2022-08-19T09:15:20;8.00;;;4.28;;
56073;SDS011;41950;55.840;37.442;2022-08-19T09:17:53;6.72;;;4.22;;
56073;SDS011;41950;55.840;37.442;2022-08-19T09:20:20;11.15;;;4.30;;
56073;SDS011;41950;55.840;37.442;2022-08-19T09:22:48;7.18;;;4.00;;
56073;SDS011;41950;55.840;37.442;2022-08-19T09:25:16;8.25;;;3.90;;
56073;SDS011;41950;55.840;37.442;2022-08-19T09:27:45;6.65;;;3.92;;
56073;SDS011;41950;55.840;37.442;2022-08-19T09:30:21;6.50;;;3.85;;
56073;SDS011;41950;55.840;37.442;2022-08-19T09:32:50;5.90;;;3.85;;
56073;SDS011;41950;55.840;37.442;2022-08-19T09:35:20;7.13;;;4.03;;
56073;SDS011;41950;55.840;37.442;2022-08-19T09:37:47;6.38;;;4.10;;
56073;SDS011;41950;55.840;37.442;2022-08-19T09:40:15;6.85;;;3.83;;
56073;SDS011;41950;55.840;37.442;2022-08-19T09:42:42;9.38;;;4.05;;
56073;SDS011;41950;55.840;37.442;2022-08-19T09:45:15;5.30;;;3.58;;
56073;SDS011;41950;55.840;37.442;2022-08-19T09:47:42;5.68;;;3.70;;
56073;SDS011;41950;55.840;37.442;2022-08-19T09:50:09;10.68;;;3.80;;
56073;SDS011;41950;55.840;37.442;2022-08-19T09:52:36;7.10;;;3.60;;
56073;SDS011;41950;55.840;37.442;2022-08-19T09:55:03;7.05;;;3.90;;
56073;SDS011;41950;55.840;37.442;2022-08-19T09:57:30;9.52;;;4.10;;
56073;SDS011;41950;55.840;37.442;2022-08-19T09:59:56;9.95;;;3.60;;
56073;SDS011;41950;55.840;37.442;2022-08-19T10:02:21;6.72;;;4.20;;
56073;SDS011;41950;55.840;37.442;2022-08-19T10:04:47;8.65;;;4.20;;
56073;SDS011;41950;55.840;37.442;2022-08-19T10:07:31;12.68;;;4.00;;
56073;SDS011;41950;55.840;37.442;2022-08-19T10:09:56;8.25;;;4.15;;
56073;SDS011;41950;55.840;37.442;2022-08-19T10:12:22;6.90;;;3.80;;
56073;SDS011;41950;55.840;37.442;2022-08-19T10:14:48;7.47;;;3.50;;
56073;SDS011;41950;55.840;37.442;2022-08-19T10:17:16;7.13;;;3.95;;
56073;SDS011;41950;55.840;37.442;2022-08-19T10:19:42;8.48;;;4.13;;
56073;SDS011;41950;55.840;37.442;2022-08-19T10:22:08;8.75;;;4.20;;
56073;SDS011;41950;55.840;37.442;2022-08-19T10:24:39;8.15;;;3.90;;
56073;SDS011;41950;55.840;37.442;2022-08-19T10:27:05;8.30;;;4.72;;
56073;SDS011;41950;55.840;37.442;2022-08-19T10:29:31;6.68;;;4.03;;
56073;SDS011;41950;55.840;37.442;2022-08-19T10:32:03;7.80;;;4.10;;
56073;SDS011;41950;55.840;37.442;2022-08-19T10:34:33;8.85;;;5.18;;
56073;SDS011;41950;55.840;37.442;2022-08-19T10:37:01;10.18;;;4.45;;
56073;SDS011;41950;55.840;37.442;2022-08-19T10:39:35;7.28;;;4.20;;
56073;SDS011;41950;55.840;37.442;2022-08-19T10:42:05;7.05;;;4.22;;
56073;SDS011;41950;55.840;37.442;2022-08-19T10:44:31;7.83;;;4.20;;
56073;SDS011;41950;55.840;37.442;2022-08-19T10:47:00;7.68;;;4.30;;
56073;SDS011;41950;55.840;37.442;2022-08-19T10:49:27;8.55;;;4.57;;
56073;SDS011;41950;55.840;37.442;2022-08-19T10:51:52;8.60;;;4.70;;
56073;SDS011;41950;55.840;37.442;2022-08-19T10:54:36;7.45;;;4.72;;
56073;SDS011;41950;55.840;37.442;2022-08-19T10:57:21;8.75;;;4.38;;
56073;SDS011;41950;55.840;37.442;2022-08-19T10:59:49;9.35;;;4.50;;
56073;SDS011;41950;55.840;37.442;2022-08-19T11:02:15;10.50;;;4.13;;
56073;SDS011;41950;55.840;37.442;2022-08-19T11:04:40;6.93;;;4.03;;
56073;SDS011;41950;55.840;37.442;2022-08-19T11:07:07;11.25;;;4.38;;
56073;SDS011;41950;55.840;37.442;2022-08-19T11:09:36;14.48;;;4.10;;
56073;SDS011;41950;55.840;37.442;2022-08-19T11:12:05;7.07;;;3.70;;
56073;SDS011;41950;55.840;37.442;2022-08-19T11:14:31;9.35;;;3.50;;
56073;SDS011;41950;55.840;37.442;2022-08-19T11:16:58;9.63;;;3.90;;
56073;SDS011;41950;55.840;37.442;2022-08-19T11:19:24;13.80;;;4.05;;
56073;SDS011;41950;55.840;37.442;2022-08-19T11:21:51;11.40;;;3.58;;
56073;SDS011;41950;55.840;37.442;2022-08-19T11:24:23;9.52;;;3.83;;
56073;SDS011;41950;55.840;37.442;2022-08-19T11:29:18;11.55;;;4.40;;
56073;SDS011;41950;55.840;37.442;2022-08-19T11:31:46;10.05;;;3.47;;
56073;SDS011;41950;55.840;37.442;2022-08-19T11:34:19;8.93;;;3.30;;
56073;SDS011;41950;55.840;37.442;2022-08-19T11:36:47;7.40;;;3.33;;
56073;SDS011;41950;55.840;37.442;2022-08-19T11:39:16;7.22;;;3.08;;
56073;SDS011;41950;55.840;37.442;2022-08-19T11:41:45;8.70;;;3.80;;
56073;SDS011;41950;55.840;37.442;2022-08-19T11:44:12;8.73;;;3.63;;
56073;SDS011;41950;55.840;37.442;2022-08-19T11:46:39;7.18;;;3.10;;
56073;SDS011;41950;55.840;37.442;2022-08-19T11:49:06;6.20;;;3.47;;
56073;SDS011;41950;55.840;37.442;2022-08-19T11:51:35;8.23;;;3.70;;
56073;SDS011;41950;55.840;37.442;2022-08-19T11:54:02;7.43;;;3.58;;
56073;SDS011;41950;55.840;37.442;2022-08-19T11:56:30;8.75;;;3.30;;
56073;SDS011;41950;55.840;37.442;2022-08-19T11:58:56;6.95;;;3.25;;
56073;SDS011;41950;55.840;37.442;2022-08-19T12:01:24;7.57;;;3.42;;
56073;SDS011;41950;55.840;37.442;2022-08-19T12:03:52;9.85;;;3.90;;
56073;SDS011;41950;55.840;37.442;2022-08-19T12:06:21;10.35;;;3.58;;
56073;SDS011;41950;55.840;37.442;2022-08-19T12:08:54;8.25;;;3.28;;
56073;SDS011;41950;55.840;37.442;2022-08-19T12:11:22;7.45;;;3.30;;
56073;SDS011;41950;55.840;37.442;2022-08-19T12:13:48;7.65;;;3.50;;
56073;SDS011;41950;55.840;37.442;2022-08-19T12:16:18;7.00;;;3.40;;
56073;SDS011;41950;55.840;37.442;2022-08-19T12:18:46;5.60;;;3.03;;
56073;SDS011;41950;55.840;37.442;2022-08-19T12:21:15;5.50;;;2.80;;
56073;SDS011;41950;55.840;37.442;2022-08-19T12:23:47;7.88;;;2.88;;
56073;SDS011;41950;55.840;37.442;2022-08-19T12:26:13;5.93;;;2.70;;
56073;SDS011;41950;55.840;37.442;2022-08-19T12:28:40;7.82;;;2.78;;
56073;SDS011;41950;55.840;37.442;2022-08-19T12:31:06;6.75;;;2.83;;
56073;SDS011;41950;55.840;37.442;2022-08-19T12:33:37;8.27;;;2.95;;
56073;SDS011;41950;55.840;37.442;2022-08-19T12:36:04;6.20;;;2.60;;
56073;SDS011;41950;55.840;37.442;2022-08-19T12:38:34;5.78;;;2.75;;
56073;SDS011;41950;55.840;37.442;2022-08-19T12:41:00;8.32;;;2.70;;
56073;SDS011;41950;55.840;37.442;2022-08-19T12:43:32;4.40;;;2.72;;
56073;SDS011;41950;55.840;37.442;2022-08-19T12:46:00;4.07;;;2.50;;
56073;SDS011;41950;55.840;37.442;2022-08-19T12:48:26;6.15;;;2.70;;
56073;SDS011;41950;55.840;37.442;2022-08-19T12:50:53;5.53;;;3.13;;
56073;SDS011;41950;55.840;37.442;2022-08-19T12:53:19;5.35;;;2.45;;
56073;SDS011;41950;55.840;37.442;2022-08-19T12:55:45;5.82;;;2.90;;
56073;SDS011;41950;55.840;37.442;2022-08-19T12:58:11;6.25;;;2.92;;
56073;SDS011;41950;55.840;37.442;2022-08-19T13:00:43;10.95;;;3.03;;
56073;SDS011;41950;55.840;37.442;2022-08-19T13:03:10;5.63;;;2.80;;
56073;SDS011;41950;55.840;37.442;2022-08-19T13:05:35;6.22;;;2.97;;
56073;SDS011;41950;55.840;37.442;2022-08-19T13:08:01;5.40;;;4.05;;
56073;SDS011;41950;55.840;37.442;2022-08-19T13:10:29;4.93;;;2.78;;
56073;SDS011;41950;55.840;37.442;2022-08-19T13:13:01;5.40;;;2.65;;
56073;SDS011;41950;55.840;37.442;2022-08-19T13:15:29;5.85;;;2.95;;
56073;SDS011;41950;55.840;37.442;2022-08-19T13:17:58;12.43;;;3.55;;
56073;SDS011;41950;55.840;37.442;2022-08-19T13:20:25;6.78;;;3.50;;
56073;SDS011;41950;55.840;37.442;2022-08-19T13:22:53;7.70;;;3.20;;
56073;SDS011;41950;55.840;37.442;2022-08-19T13:25:19;7.93;;;3.70;;
56073;SDS011;41950;55.840;37.442;2022-08-19T13:27:46;5.55;;;3.35;;
56073;SDS011;41950;55.840;37.442;2022-08-19T13:30:13;6.97;;;3.33;;
56073;SDS011;41950;55.840;37.442;2022-08-19T13:33:24;7.07;;;3.20;;
56073;SDS011;41950;55.840;37.442;2022-08-19T13:35:56;5.13;;;3.40;;
56073;SDS011;41950;55.840;37.442;2022-08-19T13:40:49;9.13;;;3.65;;
56073;SDS011;41950;55.840;37.442;2022-08-19T13:43:18;6.75;;;3.63;;
56073;SDS011;41950;55.840;37.442;2022-08-19T13:45:47;6.75;;;3.80;;
56073;SDS011;41950;55.840;37.442;2022-08-19T13:48:13;6.85;;;3.70;;
56073;SDS011;41950;55.840;37.442;2022-08-19T13:50:43;6.65;;;3.45;;
56073;SDS011;41950;55.840;37.442;2022-08-19T13:53:13;5.90;;;3.00;;
56073;SDS011;41950;55.840;37.442;2022-08-19T13:55:40;6.07;;;3.28;;
56073;SDS011;41950;55.840;37.442;2022-08-19T13:58:08;6.43;;;3.28;;
56073;SDS011;41950;55.840;37.442;2022-08-19T14:00:37;8.55;;;3.40;;
56073;SDS011;41950;55.840;37.442;2022-08-19T14:05:33;7.47;;;3.53;;
56073;SDS011;41950;55.840;37.442;2022-08-19T14:08:00;6.82;;;3.13;;
56073;SDS011;41950;55.840;37.442;2022-08-19T14:10:27;5.88;;;3.38;;
56073;SDS011;41950;55.840;37.442;2022-08-19T14:12:56;7.82;;;3.60;;
56073;SDS011;41950;55.840;37.442;2022-08-19T14:15:25;7.20;;;3.50;;
56073;SDS011;41950;55.840;37.442;2022-08-19T14:17:52;5.03;;;3.30;;
56073;SDS011;41950;55.840;37.442;2022-08-19T14:20:20;6.70;;;3.28;;
56073;SDS011;41950;55.840;37.442;2022-08-19T14:22:47;7.68;;;3.40;;
56073;SDS011;41950;55.840;37.442;2022-08-19T14:25:18;6.63;;;3.13;;
56073;SDS011;41950;55.840;37.442;2022-08-19T14:27:47;6.00;;;3.00;;
56073;SDS011;41950;55.840;37.442;2022-08-19T14:30:16;7.03;;;3.10;;
56073;SDS011;41950;55.840;37.442;2022-08-19T14:32:47;7.18;;;3.55;;
56073;SDS011;41950;55.840;37.442;2022-08-19T14:35:14;9.93;;;3.45;;
56073;SDS011;41950;55.840;37.442;2022-08-19T14:37:41;5.93;;;3.10;;
56073;SDS011;41950;55.840;37.442;2022-08-19T14:40:09;7.30;;;3.40;;
56073;SDS011;41950;55.840;37.442;2022-08-19T14:42:37;5.78;;;2.97;;
56073;SDS011;41950;55.840;37.442;2022-08-19T14:45:03;6.13;;;3.20;;
56073;SDS011;41950;55.840;37.442;2022-08-19T14:47:31;6.07;;;3.28;;
56073;SDS011;41950;55.840;37.442;2022-08-19T14:49:57;5.80;;;3.03;;
56073;SDS011;41950;55.840;37.442;2022-08-19T14:52:25;8.13;;;4.20;;
56073;SDS011;41950;55.840;37.442;2022-08-19T14:54:54;8.93;;;5.80;;
56073;SDS011;41950;55.840;37.442;2022-08-19T14:57:21;10.88;;;6.07;;